Time;durP1;ratioP1;P1;durP2;ratioP2;P2;SDS_P1;SDS_P2;PMS_P1;PMS_P2;Temp;Humidity;BMP_temperature;BMP_pressure;BME280_temperature;BME280_humidity;BME280_pressure;Samples;Min_cycle;Max_cycle;Signal;HPM_P1;HPM_P2
2022/09/15 00:02:04;;;;;;;;;;;;;;;19.20;62.43;99675.44;4961461;28;6795;-73
2022/09/15 00:04:29;;;;;;;;;;;;;;;19.20;61.94;99672.00;4982817;28;6936;-74
2022/09/15 00:06:55;;;;;;;;;;;;;;;19.18;61.98;99672.00;4941395;28;7028;-72
2022/09/15 00:09:20;;;;;;;;;;;;;;;19.21;61.73;99668.53;4962885;28;6780;-73
2022/09/15 00:11:46;;;;;;;;;;;;;;;19.20;61.90;99669.41;4966014;28;6949;-72
2022/09/15 00:14:12;;;;;;;;;;;;;;;19.15;61.99;99672.84;4983445;28;6780;-73
2022/09/15 00:16:38;;;;;;;;;;;;;;;19.10;61.82;99669.41;4963540;28;6930;-73
2022/09/15 00:19:05;;;;;;;;;;;;;;;19.05;61.65;99665.06;4963141;28;7240;-73
2022/09/15 00:21:34;;;;;;;;;;;;;;;18.97;61.25;99660.69;4982781;28;7010;-72
2022/09/15 00:24:01;;;;;;;;;;;;;;;18.89;60.83;99667.59;4963828;28;6800;-73
2022/09/15 00:26:29;;;;;;;;;;;;;;;18.81;61.59;99672.78;4950445;28;6993;-73
2022/09/15 00:28:57;;;;;;;;;;;;;;;18.72;60.79;99672.75;4955519;28;6971;-73
2022/09/15 00:31:26;;;;;;;;;;;;;;;18.65;61.63;99663.22;4979988;28;6819;-73
2022/09/15 00:33:55;;;;;;;;;;;;;;;18.57;61.83;99665.78;4969791;28;7885;-72
2022/09/15 00:36:23;;;;;;;;;;;;;;;18.48;61.53;99665.75;4984451;28;6780;-73
2022/09/15 00:38:50;;;;;;;;;;;;;;;18.41;61.54;99672.66;4970214;28;6819;-73
2022/09/15 00:41:20;;;;;;;;;;;;;;;18.35;61.25;99673.50;4964985;28;6863;-73
2022/09/15 00:44:24;;;;;;;;;;;;;;;18.29;61.49;99683.81;4954818;28;6996;-72
2022/09/15 00:46:55;;;;;;;;;;;;;;;18.24;61.74;99678.63;4981942;28;6827;-72
2022/09/15 00:49:31;;;;;;;;;;;;;;;18.22;62.18;99676.88;4980616;28;7241;-73
2022/09/15 00:52:07;;;;;;;;;;;;;;;18.20;61.99;99673.41;4987134;28;6796;-73
2022/09/15 00:54:45;;;;;;;;;;;;;;;18.14;61.69;99672.50;4968391;28;6862;-72
2022/09/15 00:57:21;;;;;;;;;;;;;;;18.07;62.30;99673.34;4982561;28;7161;-73
2022/09/15 00:59:49;;;;;;;;;;;;;;;18.04;62.14;99675.91;4954908;28;7004;-72
2022/09/15 01:02:23;;;;;;;;;;;;;;;17.97;62.04;99677.56;4965765;28;6792;-73
2022/09/15 01:04:52;;;;;;;;;;;;;;;17.91;62.34;99681.00;4986637;28;7687;-73
2022/09/15 01:07:32;;;;;;;;;;;;;;;17.87;62.18;99684.44;4981593;28;6939;-73
2022/09/15 01:10:07;;;;;;;;;;;;;;;17.81;61.94;99681.78;4970614;28;6896;-73
2022/09/15 01:12:32;;;;;;;;;;;;;;;17.78;61.97;99674.00;4985709;28;6811;-73
2022/09/15 01:15:00;;;;;;;;;;;;;;;17.74;62.37;99674.81;4967167;28;6783;-73
2022/09/15 01:17:59;;;;;;;;;;;;;;;17.71;62.04;99683.44;4970049;28;7191;-74
2022/09/15 01:20:46;;;;;;;;;;;;;;;17.66;62.65;99673.91;4970527;28;7211;-72
2022/09/15 01:23:36;;;;;;;;;;;;;;;17.62;62.12;99673.00;4976036;28;6991;-73
2022/09/15 01:26:29;;;;;;;;;;;;;;;17.58;62.60;99669.53;4972595;28;7043;-73
2022/09/15 01:29:48;;;;;;;;;;;;;;;17.54;62.38;99678.13;4987784;28;6861;-73
2022/09/15 01:35:21;;;;;;;;;;;;;;;17.43;62.70;99670.28;4971596;28;6816;-73
2022/09/15 01:38:01;;;;;;;;;;;;;;;17.39;62.35;99672.84;4986813;28;7071;-73
2022/09/15 01:40:36;;;;;;;;;;;;;;;17.35;62.57;99667.63;4985642;28;7407;-73
2022/09/15 01:43:05;;;;;;;;;;;;;;;17.33;62.45;99668.47;4968452;28;7193;-74
2022/09/15 01:45:34;;;;;;;;;;;;;;;17.30;63.01;99671.91;4968900;28;6876;-73
2022/09/15 01:48:04;;;;;;;;;;;;;;;17.27;62.96;99674.44;4966940;28;7191;-73
2022/09/15 01:50:45;;;;;;;;;;;;;;;17.24;62.76;99673.56;4969213;28;7015;-73
2022/09/15 01:53:18;;;;;;;;;;;;;;;17.21;62.32;99677.00;4969259;28;6800;-73
2022/09/15 01:56:10;;;;;;;;;;;;;;;17.17;62.46;99686.47;4957830;28;7016;-73
2022/09/15 01:58:39;;;;;;;;;;;;;;;17.13;62.68;99682.09;4973905;28;6954;-73
2022/09/15 02:01:20;;;;;;;;;;;;;;;17.11;62.87;99682.94;4978078;28;6796;-73
2022/09/15 02:04:10;;;;;;;;;;;;;;;17.07;62.87;99672.53;4968092;28;6991;-73
2022/09/15 02:07:15;;;;;;;;;;;;;;;17.04;63.11;99676.81;4984731;28;6880;-72
2022/09/15 02:10:10;;;;;;;;;;;;;;;16.98;62.56;99677.59;4968894;28;7524;-74
2022/09/15 02:13:08;;;;;;;;;;;;;;;16.96;63.39;99668.09;4982079;28;6823;-74
2022/09/15 02:15:50;;;;;;;;;;;;;;;16.95;63.52;99677.56;4969040;28;6815;-74
2022/09/15 02:18:43;;;;;;;;;;;;;;;16.93;63.36;99682.72;4968532;28;6888;-74
2022/09/15 02:21:32;;;;;;;;;;;;;;;16.91;63.14;99668.91;4945220;28;7061;-75
2022/09/15 02:24:13;;;;;;;;;;;;;;;16.90;63.46;99668.88;4968943;28;6831;-74
2022/09/15 02:26:42;;;;;;;;;;;;;;;16.89;63.57;99672.31;4969957;28;7067;-74
2022/09/15 02:29:15;;;;;;;;;;;;;;;16.89;63.32;99667.16;4951366;28;8195;-75
2022/09/15 02:31:43;;;;;;;;;;;;;;;16.88;63.50;99670.59;4983594;28;7030;-73
2022/09/15 02:34:24;;;;;;;;;;;;;;;16.87;63.38;99674.03;4966838;28;7122;-74
2022/09/15 02:36:52;;;;;;;;;;;;;;;16.85;63.79;99674.03;4982201;28;6860;-74
2022/09/15 02:39:26;;;;;;;;;;;;;;;16.85;63.25;99676.63;4967579;28;6999;-74
2022/09/15 02:41:52;;;;;;;;;;;;;;;16.84;63.11;99676.59;4966225;28;7174;-73
2022/09/15 02:44:18;;;;;;;;;;;;;;;16.82;63.18;99675.72;4966221;28;7022;-74
2022/09/15 02:46:44;;;;;;;;;;;;;;;16.82;63.01;99688.66;4986101;28;6852;-73
2022/09/15 02:49:09;;;;;;;;;;;;;;;16.79;63.52;99680.00;4947728;28;7212;-74
2022/09/15 02:51:35;;;;;;;;;;;;;;;16.78;63.50;99686.03;4964059;28;7350;-73
2022/09/15 02:54:01;;;;;;;;;;;;;;;16.77;63.25;99686.88;4982652;28;6780;-74
2022/09/15 02:56:26;;;;;;;;;;;;;;;16.75;63.47;99691.16;4969819;28;6772;-74
2022/09/15 02:58:52;;;;;;;;;;;;;;;16.75;63.48;99687.69;4970074;28;6965;-74
2022/09/15 03:01:18;;;;;;;;;;;;;;;16.74;63.56;99689.44;4984490;28;6832;-73
2022/09/15 03:03:45;;;;;;;;;;;;;;;16.73;63.29;99679.94;4965426;28;7198;-73
2022/09/15 03:06:19;;;;;;;;;;;;;;;16.72;63.67;99685.97;4968002;28;6860;-74
2022/09/15 03:08:50;;;;;;;;;;;;;;;16.72;63.70;99682.50;4969917;28;7003;-73
2022/09/15 03:11:19;;;;;;;;;;;;;;;16.73;63.85;99698.06;4985877;28;6811;-74
2022/09/15 03:13:46;;;;;;;;;;;;;;;16.73;63.76;99695.47;4981757;28;6804;-73
2022/09/15 03:16:15;;;;;;;;;;;;;;;16.75;64.11;99688.59;4950772;28;7046;-73
2022/09/15 03:18:41;;;;;;;;;;;;;;;16.78;63.88;99693.78;4950507;28;7563;-73
2022/09/15 03:21:12;;;;;;;;;;;;;;;16.82;63.59;99699.00;4966426;28;7177;-73
2022/09/15 03:23:39;;;;;;;;;;;;;;;16.83;64.02;99690.41;4967503;28;7446;-74
2022/09/15 03:26:06;;;;;;;;;;;;;;;16.81;63.51;99685.19;4968810;28;6983;-74
2022/09/15 03:28:32;;;;;;;;;;;;;;;16.79;63.50;99685.16;4966256;28;7264;-73
2022/09/15 03:30:57;;;;;;;;;;;;;;;16.79;63.41;99687.75;4983982;28;6860;-74
2022/09/15 03:33:24;;;;;;;;;;;;;;;16.78;63.58;99685.16;4984528;28;7133;-73
2022/09/15 03:35:51;;;;;;;;;;;;;;;16.76;63.65;99694.63;4973316;28;7090;-73
2022/09/15 03:38:18;;;;;;;;;;;;;;;16.75;63.82;99691.16;4966929;28;6987;-73
2022/09/15 03:40:54;;;;;;;;;;;;;;;16.73;63.69;99695.47;4971648;28;6923;-74
2022/09/15 03:43:19;;;;;;;;;;;;;;;16.71;63.87;99694.59;4984936;28;6998;-73
2022/09/15 03:45:45;;;;;;;;;;;;;;;16.71;63.97;99689.41;4966187;28;6968;-73
2022/09/15 03:48:10;;;;;;;;;;;;;;;16.72;63.83;99700.63;4965209;28;7031;-73
2022/09/15 03:50:36;;;;;;;;;;;;;;;16.74;64.47;99691.16;4983327;28;6847;-73
2022/09/15 03:53:02;;;;;;;;;;;;;;;16.78;64.32;99693.78;4945449;28;7269;-73
2022/09/15 03:55:29;;;;;;;;;;;;;;;16.84;64.22;99692.13;4955322;28;6983;-73
2022/09/15 03:57:55;;;;;;;;;;;;;;;16.87;64.22;99674.03;4966397;28;7038;-74
2022/09/15 04:00:21;;;;;;;;;;;;;;;16.92;63.92;99680.16;4966255;28;6796;-73
2022/09/15 04:02:47;;;;;;;;;;;;;;;16.95;64.07;99675.00;4951586;28;6984;-73
2022/09/15 04:05:13;;;;;;;;;;;;;;;16.98;64.15;99676.75;4982245;28;6836;-73
2022/09/15 04:07:39;;;;;;;;;;;;;;;17.01;64.18;99675.09;4971544;28;6976;-74
2022/09/15 04:10:07;;;;;;;;;;;;;;;17.02;64.29;99669.06;4970342;28;6823;-73
2022/09/15 04:12:33;;;;;;;;;;;;;;;17.05;63.90;99671.66;4984999;28;6796;-73
2022/09/15 04:14:59;;;;;;;;;;;;;;;17.04;63.78;99672.53;4969905;28;7198;-73
2022/09/15 04:17:25;;;;;;;;;;;;;;;17.04;64.44;99676.81;4969132;28;6947;-73
2022/09/15 04:19:50;;;;;;;;;;;;;;;17.03;64.21;99680.28;4953839;28;7261;-73
2022/09/15 04:22:16;;;;;;;;;;;;;;;17.04;64.31;99684.59;4985994;28;6931;-73
2022/09/15 04:24:41;;;;;;;;;;;;;;;17.04;64.14;99682.88;4968073;28;6836;-73
2022/09/15 04:27:07;;;;;;;;;;;;;;;17.08;63.78;99674.28;4968853;28;6955;-73
2022/09/15 04:29:33;;;;;;;;;;;;;;;17.12;63.94;99682.09;4969651;28;7038;-73
2022/09/15 04:31:58;;;;;;;;;;;;;;;17.13;64.23;99682.09;4970590;28;6937;-73
2022/09/15 04:34:24;;;;;;;;;;;;;;;17.16;63.84;99676.09;4988697;28;6783;-73
2022/09/15 04:36:49;;;;;;;;;;;;;;;17.17;64.02;99677.81;4984421;28;7308;-73
2022/09/15 04:39:15;;;;;;;;;;;;;;;17.18;64.12;99676.97;4969395;28;6929;-74
2022/09/15 04:41:41;;;;;;;;;;;;;;;17.19;63.87;99678.69;4966718;28;7109;-73
2022/09/15 04:44:06;;;;;;;;;;;;;;;17.22;63.88;99691.69;4985420;28;7270;-73
2022/09/15 04:46:32;;;;;;;;;;;;;;;17.25;64.11;99683.09;4982341;28;6955;-74
2022/09/15 04:48:58;;;;;;;;;;;;;;;17.26;64.17;99679.63;4949763;28;6966;-73
2022/09/15 04:51:24;;;;;;;;;;;;;;;17.29;64.05;99683.13;4986803;28;6944;-73
2022/09/15 04:53:50;;;;;;;;;;;;;;;17.33;63.96;99689.19;4968556;28;7587;-74
2022/09/15 04:56:23;;;;;;;;;;;;;;;17.34;64.19;99686.59;4970911;28;6823;-74
2022/09/15 04:58:52;;;;;;;;;;;;;;;17.36;63.63;99689.22;4984041;28;6956;-73
2022/09/15 05:01:27;;;;;;;;;;;;;;;17.39;63.35;99696.16;4984589;28;6969;-73
2022/09/15 05:03:53;;;;;;;;;;;;;;;17.40;63.31;99697.91;4971364;28;7021;-73
2022/09/15 05:06:25;;;;;;;;;;;;;;;17.41;63.48;99697.88;4983107;28;6974;-74
2022/09/15 05:08:55;;;;;;;;;;;;;;;17.41;63.10;99704.81;4971825;28;6950;-73
2022/09/15 05:11:22;;;;;;;;;;;;;;;17.41;63.83;99709.97;4977160;28;6947;-73
2022/09/15 05:13:49;;;;;;;;;;;;;;;17.40;63.55;99703.06;4986770;28;6980;-73
2022/09/15 05:16:21;;;;;;;;;;;;;;;17.39;63.81;99702.19;4981462;28;7165;-73
2022/09/15 05:18:49;;;;;;;;;;;;;;;17.38;63.61;99697.88;4968884;28;6792;-73
2022/09/15 05:21:17;;;;;;;;;;;;;;;17.38;63.64;99704.75;4986001;28;6803;-73
2022/09/15 05:23:44;;;;;;;;;;;;;;;17.37;63.43;99708.19;4969225;28;6796;-73
2022/09/15 05:26:17;;;;;;;;;;;;;;;17.37;63.46;99713.38;4968040;28;6995;-73
2022/09/15 05:28:43;;;;;;;;;;;;;;;17.37;63.58;99710.78;4968779;28;6793;-73
2022/09/15 05:31:16;;;;;;;;;;;;;;;17.33;63.87;99710.78;4968827;28;6788;-73
2022/09/15 05:33:43;;;;;;;;;;;;;;;17.33;63.69;99713.38;4982493;28;6868;-73
2022/09/15 05:36:08;;;;;;;;;;;;;;;17.34;63.43;99728.03;4984762;28;6796;-73
2022/09/15 05:38:34;;;;;;;;;;;;;;;17.34;63.76;99719.44;4981054;28;7103;-74
2022/09/15 05:41:06;;;;;;;;;;;;;;;17.33;63.50;99715.97;4966867;28;8527;-72
2022/09/15 05:43:34;;;;;;;;;;;;;;;17.32;63.88;99718.53;4967829;28;6868;-73
2022/09/15 05:46:00;;;;;;;;;;;;;;;17.33;63.77;99718.53;4970472;28;6788;-73
2022/09/15 05:48:26;;;;;;;;;;;;;;;17.33;63.70;99712.47;4965874;28;7064;-74
2022/09/15 05:50:54;;;;;;;;;;;;;;;17.34;63.75;99717.69;4968177;28;6848;-74
2022/09/15 05:53:22;;;;;;;;;;;;;;;17.35;64.02;99719.41;4968086;28;6784;-74
2022/09/15 05:55:48;;;;;;;;;;;;;;;17.38;63.71;99722.88;4967206;28;6801;-73
2022/09/15 05:58:14;;;;;;;;;;;;;;;17.42;64.08;99724.66;4968497;28;7230;-72
2022/09/15 06:00:40;;;;;;;;;;;;;;;17.44;64.17;99723.84;4983775;28;6776;-74
2022/09/15 06:03:14;;;;;;;;;;;;;;;17.51;64.24;99734.22;4965485;28;6780;-73
2022/09/15 06:05:40;;;;;;;;;;;;;;;17.54;64.47;99742.91;4967440;28;6955;-73
2022/09/15 06:08:06;;;;;;;;;;;;;;;17.61;64.33;99747.28;4966706;28;6788;-74
2022/09/15 06:10:32;;;;;;;;;;;;;;;17.72;64.47;99749.09;4968315;28;7318;-73
2022/09/15 06:12:57;;;;;;;;;;;;;;;17.77;64.06;99743.09;4971994;28;7038;-76
2022/09/15 06:15:23;;;;;;;;;;;;;;;17.87;63.91;99749.25;4983112;28;6784;-76
2022/09/15 06:17:50;;;;;;;;;;;;;;;17.95;63.97;99751.88;4968415;28;8021;-76
2022/09/15 06:20:17;;;;;;;;;;;;;;;18.01;64.48;99743.28;4954626;28;7069;-76
2022/09/15 06:22:43;;;;;;;;;;;;;;;18.08;64.56;99745.09;4970106;28;7480;-76
2022/09/15 06:25:10;;;;;;;;;;;;;;;18.15;64.06;99744.25;4967742;28;6780;-76
2022/09/15 06:27:36;;;;;;;;;;;;;;;18.23;64.51;99744.31;4985614;28;6964;-75
2022/09/15 06:30:02;;;;;;;;;;;;;;;18.29;63.76;99751.28;4983275;28;6982;-75
2022/09/15 06:32:28;;;;;;;;;;;;;;;18.35;64.00;99750.44;4947534;28;6974;-76
2022/09/15 06:34:53;;;;;;;;;;;;;;;18.40;63.74;99754.78;4965981;28;7489;-76
2022/09/15 06:37:19;;;;;;;;;;;;;;;18.46;64.10;99754.81;4984672;28;6899;-76
2022/09/15 06:39:45;;;;;;;;;;;;;;;18.50;64.05;99754.84;4968022;28;7034;-76
2022/09/15 06:42:10;;;;;;;;;;;;;;;18.55;64.03;99754.00;4984307;28;7868;-75
2022/09/15 06:44:36;;;;;;;;;;;;;;;18.57;63.83;99762.66;4984561;28;7088;-76
2022/09/15 06:47:03;;;;;;;;;;;;;;;18.61;63.60;99773.91;4967243;28;6795;-76
2022/09/15 06:49:30;;;;;;;;;;;;;;;18.66;63.99;99774.81;4950185;28;8175;-76
2022/09/15 06:51:56;;;;;;;;;;;;;;;18.74;64.19;99773.13;4984240;28;6792;-76
2022/09/15 06:54:22;;;;;;;;;;;;;;;18.83;63.82;99769.69;4966554;28;6971;-76
2022/09/15 06:56:48;;;;;;;;;;;;;;;18.91;63.56;99769.72;4967693;28;6918;-76
2022/09/15 06:59:15;;;;;;;;;;;;;;;18.96;64.17;99769.72;4965390;28;7090;-76
2022/09/15 07:01:42;;;;;;;;;;;;;;;19.05;63.70;99782.78;4964276;28;6797;-76
2022/09/15 07:04:08;;;;;;;;;;;;;;;19.13;63.90;99769.84;4954497;28;7368;-74
2022/09/15 07:06:37;;;;;;;;;;;;;;;19.22;63.91;99776.78;4966723;28;6784;-74
2022/09/15 07:09:05;;;;;;;;;;;;;;;19.25;63.26;99774.16;4959812;28;7255;-73
2022/09/15 07:11:31;;;;;;;;;;;;;;;19.27;63.35;99762.94;4965720;28;7048;-73
2022/09/15 07:13:57;;;;;;;;;;;;;;;19.29;63.03;99768.13;4978541;28;6788;-73
2022/09/15 07:16:26;;;;;;;;;;;;;;;19.29;63.31;99762.94;4972314;28;6844;-74
2022/09/15 07:19:00;;;;;;;;;;;;;;;19.30;62.75;99769.88;4965529;28;6989;-73
2022/09/15 07:21:26;;;;;;;;;;;;;;;19.32;63.13;99790.66;4967312;28;6808;-73
2022/09/15 07:23:55;;;;;;;;;;;;;;;19.36;63.48;99795.00;4967112;28;6935;-73
2022/09/15 07:26:25;;;;;;;;;;;;;;;19.45;63.29;99799.31;4968027;28;7019;-74
2022/09/15 07:28:55;;;;;;;;;;;;;;;19.54;63.60;99801.94;4972580;28;6993;-74
2022/09/15 07:31:24;;;;;;;;;;;;;;;19.65;63.46;99801.97;4969842;28;7011;-73
2022/09/15 07:33:50;;;;;;;;;;;;;;;19.70;63.43;99811.50;4967164;28;6788;-74
2022/09/15 07:36:16;;;;;;;;;;;;;;;19.76;63.00;99805.44;4966099;28;6784;-71
2022/09/15 07:38:46;;;;;;;;;;;;;;;19.81;63.09;99795.03;4970669;28;7086;-73
2022/09/15 07:41:26;;;;;;;;;;;;;;;19.88;63.03;99803.69;4985694;28;6876;-73
2022/09/15 07:43:54;;;;;;;;;;;;;;;19.94;63.17;99798.53;4970085;28;6808;-73
2022/09/15 07:46:23;;;;;;;;;;;;;;;20.02;63.14;99802.00;4987999;28;7098;-73
2022/09/15 07:48:51;;;;;;;;;;;;;;;20.13;63.01;99804.59;4986038;28;7184;-74
2022/09/15 07:51:18;;;;;;;;;;;;;;;20.27;63.13;99807.19;4975930;28;6812;-74
2022/09/15 07:53:47;;;;;;;;;;;;;;;20.43;63.11;99813.25;4970102;28;6780;-73
2022/09/15 07:56:17;;;;;;;;;;;;;;;20.61;63.04;99822.72;4964984;28;6994;-74
2022/09/15 07:58:43;;;;;;;;;;;;;;;20.74;62.70;99818.38;4970855;28;6808;-74
2022/09/15 08:01:10;;;;;;;;;;;;;;;20.83;62.08;99820.09;4970000;28;6959;-73
2022/09/15 08:03:47;;;;;;;;;;;;;;;20.91;62.09;99820.94;4971551;28;6800;-73
2022/09/15 08:06:16;;;;;;;;;;;;;;;20.97;61.72;99824.41;4969784;28;6800;-73
2022/09/15 08:08:44;;;;;;;;;;;;;;;21.01;62.10;99823.50;4970192;28;6987;-73
2022/09/15 08:11:15;;;;;;;;;;;;;;;21.09;61.95;99825.19;4966781;28;6808;-74
2022/09/15 08:13:41;;;;;;;;;;;;;;;21.16;61.90;99836.47;4968961;28;7312;-73
2022/09/15 08:16:10;;;;;;;;;;;;;;;21.27;61.75;99835.56;4970254;28;6776;-73
2022/09/15 08:18:43;;;;;;;;;;;;;;;21.39;61.60;99842.41;4986667;28;6964;-73
2022/09/15 08:21:16;;;;;;;;;;;;;;;21.53;61.53;99852.75;4943907;28;7190;-74
2022/09/15 08:23:42;;;;;;;;;;;;;;;21.62;61.13;99858.81;4979943;28;6804;-73
2022/09/15 08:26:10;;;;;;;;;;;;;;;21.69;60.55;99856.19;4981142;28;6800;-74
2022/09/15 08:28:37;;;;;;;;;;;;;;;21.68;60.54;99850.09;4985435;28;6784;-74
2022/09/15 08:31:07;;;;;;;;;;;;;;;21.70;60.46;99852.72;4969344;28;6974;-74
2022/09/15 08:33:33;;;;;;;;;;;;;;;21.67;60.01;99861.41;4970429;28;6962;-73
2022/09/15 08:36:06;;;;;;;;;;;;;;;21.65;60.18;99860.53;4984339;28;6919;-73
2022/09/15 08:38:32;;;;;;;;;;;;;;;21.61;59.78;99864.00;4983921;28;8362;-73
2022/09/15 08:41:05;;;;;;;;;;;;;;;21.57;59.89;99868.38;4968280;28;6961;-73
2022/09/15 08:44:04;;;;;;;;;;;;;;;21.59;60.04;99871.00;4969681;28;7060;-73
2022/09/15 08:46:55;;;;;;;;;;;;;;;21.71;60.75;99867.47;4983944;28;6804;-74
2022/09/15 08:50:04;;;;;;;;;;;;;;;21.92;60.90;99869.06;4970390;28;6804;-73
2022/09/15 08:52:48;;;;;;;;;;;;;;;22.11;60.74;99875.00;4987737;28;7094;-74
2022/09/15 08:55:49;;;;;;;;;;;;;;;22.32;60.58;99873.97;4986344;28;6970;-74
2022/09/15 08:58:24;;;;;;;;;;;;;;;22.53;60.41;99874.69;4968157;28;6979;-73
2022/09/15 09:01:09;;;;;;;;;;;;;;;22.73;60.12;99865.78;4970318;28;6977;-73
2022/09/15 09:04:07;;;;;;;;;;;;;;;22.91;59.26;99882.13;4986005;28;7295;-73
2022/09/15 09:07:09;;;;;;;;;;;;;;;23.09;59.12;99870.59;4985128;28;7200;-74
2022/09/15 09:10:24;;;;;;;;;;;;;;;23.28;58.93;99886.94;4971846;28;6808;-73
2022/09/15 09:13:17;;;;;;;;;;;;;;;23.50;58.92;99876.19;4985325;28;6828;-73
2022/09/15 09:16:14;;;;;;;;;;;;;;;23.68;58.46;99875.94;4968155;28;6824;-73
2022/09/15 09:19:07;;;;;;;;;;;;;;;23.84;57.13;99878.31;4971968;28;6898;-73
2022/09/15 09:21:47;;;;;;;;;;;;;;;23.92;56.59;99879.06;4987871;28;7210;-73
2022/09/15 09:24:33;;;;;;;;;;;;;;;23.99;56.75;99882.44;4970017;28;6816;-73
2022/09/15 09:26:59;;;;;;;;;;;;;;;24.09;56.35;99875.34;4986769;28;6816;-73
2022/09/15 09:29:43;;;;;;;;;;;;;;;24.12;55.03;99880.53;4970404;28;6940;-73
2022/09/15 09:32:26;;;;;;;;;;;;;;;24.07;54.56;99877.13;4969169;28;6823;-73
2022/09/15 09:35:22;;;;;;;;;;;;;;;24.00;54.82;99871.09;4970439;28;6991;-73
2022/09/15 09:37:51;;;;;;;;;;;;;;;23.89;54.11;99879.13;4972224;28;7190;-74
2022/09/15 09:40:18;;;;;;;;;;;;;;;23.77;54.20;99877.53;4966677;28;6821;-73
2022/09/15 09:42:44;;;;;;;;;;;;;;;23.64;54.08;99883.84;4954621;28;7350;-73
2022/09/15 09:45:13;;;;;;;;;;;;;;;23.48;54.16;99880.59;4966841;28;6808;-73
2022/09/15 09:47:41;;;;;;;;;;;;;;;23.31;53.77;99886.91;4983864;28;7019;-73
2022/09/15 09:50:31;;;;;;;;;;;;;;;23.15;53.74;99892.28;4968088;28;7130;-74
2022/09/15 09:52:58;;;;;;;;;;;;;;;23.06;54.21;99891.53;4966299;28;6788;-73
2022/09/15 09:55:26;;;;;;;;;;;;;;;23.04;54.04;99883.72;4968679;28;6980;-73
2022/09/15 09:58:09;;;;;;;;;;;;;;;23.11;54.88;99877.53;4984403;28;6804;-73
2022/09/15 10:00:39;;;;;;;;;;;;;;;23.32;54.98;99893.84;4969638;28;6804;-73
2022/09/15 10:03:22;;;;;;;;;;;;;;;23.56;55.10;99897.00;4965941;28;6991;-73
2022/09/15 10:06:21;;;;;;;;;;;;;;;23.83;54.88;99887.91;4984098;28;6788;-74
2022/09/15 10:09:07;;;;;;;;;;;;;;;24.05;54.10;99889.38;4967128;28;7000;-73
2022/09/15 10:11:48;;;;;;;;;;;;;;;24.20;53.84;99878.63;4973873;28;6812;-74
2022/09/15 10:14:31;;;;;;;;;;;;;;;24.33;52.71;99878.44;4968282;28;7172;-73
2022/09/15 10:17:21;;;;;;;;;;;;;;;24.42;52.80;99888.75;4969435;28;6871;-73
2022/09/15 10:19:54;;;;;;;;;;;;;;;24.51;52.82;99872.84;4984303;28;6812;-74
2022/09/15 10:22:23;;;;;;;;;;;;;;;24.64;52.46;99868.25;4965265;28;7253;-74
2022/09/15 10:24:49;;;;;;;;;;;;;;;24.84;52.83;99869.66;4967944;28;6987;-73
2022/09/15 10:27:35;;;;;;;;;;;;;;;25.02;51.89;99868.44;4967385;28;6771;-74
2022/09/15 10:30:13;;;;;;;;;;;;;;;25.15;51.43;99868.19;4967540;28;6822;-74
2022/09/15 10:32:42;;;;;;;;;;;;;;;25.27;51.69;99865.31;4982767;28;11119;-74
2022/09/15 10:35:17;;;;;;;;;;;;;;;25.42;51.33;99865.88;4979320;28;7162;-74
2022/09/15 10:38:10;;;;;;;;;;;;;;;25.61;50.51;99856.72;4967060;28;7019;-74
2022/09/15 10:40:54;;;;;;;;;;;;;;;25.82;50.04;99862.38;4984724;28;6969;-74
2022/09/15 10:43:52;;;;;;;;;;;;;;;26.25;50.30;99859.59;4968506;28;6808;-74
2022/09/15 10:46:47;;;;;;;;;;;;;;;27.10;49.45;99856.44;4965983;28;7064;-74
2022/09/15 10:49:53;;;;;;;;;;;;;;;27.74;47.52;99842.25;4944690;28;7011;-74
2022/09/15 10:53:02;;;;;;;;;;;;;;;27.86;46.08;99856.75;4984344;28;7167;-74
2022/09/15 10:55:40;;;;;;;;;;;;;;;27.70;45.06;99851.13;4965405;28;7122;-74
2022/09/15 10:59:03;;;;;;;;;;;;;;;27.43;45.02;99857.19;4983549;28;6812;-74
2022/09/15 11:01:28;;;;;;;;;;;;;;;27.14;44.89;99861.56;4944592;28;7090;-74
2022/09/15 11:04:25;;;;;;;;;;;;;;;26.94;45.46;99861.28;4966784;28;7030;-74
2022/09/15 11:07:17;;;;;;;;;;;;;;;26.73;45.34;99866.22;4985132;28;6835;-74
2022/09/15 11:10:09;;;;;;;;;;;;;;;26.53;45.07;99867.63;4983753;28;6808;-74
2022/09/15 11:12:45;;;;;;;;;;;;;;;26.36;44.96;99873.31;4951942;28;6971;-74
2022/09/15 11:15:28;;;;;;;;;;;;;;;26.28;45.24;99875.28;4966503;28;7187;-74
2022/09/15 11:18:15;;;;;;;;;;;;;;;26.35;45.28;99874.22;4965025;28;7445;-74
2022/09/15 11:21:05;;;;;;;;;;;;;;;26.46;45.06;99864.31;4982470;28;6803;-74
2022/09/15 11:23:55;;;;;;;;;;;;;;;26.51;44.93;99866.81;4984347;28;6800;-74
2022/09/15 11:26:53;;;;;;;;;;;;;;;26.47;44.74;99866.03;4951936;28;6987;-74
2022/09/15 11:30:09;;;;;;;;;;;;;;;26.60;44.84;99878.81;4983092;28;7005;-74
2022/09/15 11:32:49;;;;;;;;;;;;;;;26.99;44.47;99865.50;4982203;28;6812;-74
2022/09/15 11:35:30;;;;;;;;;;;;;;;27.33;42.94;99873.28;4981360;28;6797;-74
2022/09/15 11:38:12;;;;;;;;;;;;;;;27.30;42.52;99877.75;4983775;28;7187;-74
2022/09/15 11:40:49;;;;;;;;;;;;;;;27.00;42.07;99869.84;4967756;28;7195;-74
2022/09/15 11:43:34;;;;;;;;;;;;;;;26.59;41.79;99877.09;4963990;28;6800;-74
2022/09/15 11:46:10;;;;;;;;;;;;;;;26.13;42.39;99879.97;4965110;28;6984;-74
2022/09/15 11:48:54;;;;;;;;;;;;;;;25.69;42.33;99892.41;4967227;28;6800;-74
2022/09/15 11:51:25;;;;;;;;;;;;;;;25.28;42.92;99885.38;4965345;28;6852;-74
2022/09/15 11:54:04;;;;;;;;;;;;;;;24.99;43.48;99889.47;4962839;28;6966;-74
2022/09/15 11:56:43;;;;;;;;;;;;;;;24.75;43.75;99891.66;4980814;28;7098;-74
2022/09/15 11:59:59;;;;;;;;;;;;;;;24.53;43.97;99889.44;4966611;28;6987;-74
2022/09/15 12:02:38;;;;;;;;;;;;;;;24.27;44.57;99895.97;4984643;28;6828;-74
2022/09/15 12:05:10;;;;;;;;;;;;;;;24.10;44.09;99890.16;4978477;28;7015;-74
2022/09/15 12:08:09;;;;;;;;;;;;;;;24.00;44.31;99884.19;4982880;28;6971;-74
2022/09/15 12:10:49;;;;;;;;;;;;;;;23.94;44.78;99886.88;4967328;28;6876;-74
2022/09/15 12:13:21;;;;;;;;;;;;;;;23.89;44.95;99888.69;4965345;28;6980;-74
2022/09/15 12:15:50;;;;;;;;;;;;;;;23.83;45.18;99890.53;4966455;28;8659;-74
2022/09/15 12:18:54;;;;;;;;;;;;;;;23.76;44.68;99888.91;4966409;28;6793;-74
2022/09/15 12:21:43;;;;;;;;;;;;;;;23.66;44.88;99893.41;4982197;28;7022;-74
2022/09/15 12:24:22;;;;;;;;;;;;;;;23.60;45.28;99895.22;4979812;28;7071;-74
2022/09/15 12:26:49;;;;;;;;;;;;;;;23.58;45.92;99893.50;4951530;28;6992;-74
2022/09/15 12:29:20;;;;;;;;;;;;;;;23.57;45.12;99894.38;4951337;28;7000;-74
2022/09/15 12:31:46;;;;;;;;;;;;;;;23.54;45.24;99898.78;4984708;28;7328;-74
2022/09/15 12:34:23;;;;;;;;;;;;;;;23.51;46.06;99898.84;4988505;28;6792;-74
2022/09/15 12:36:52;;;;;;;;;;;;;;;23.46;45.22;99900.63;4987654;28;6811;-74
2022/09/15 12:39:36;;;;;;;;;;;;;;;23.43;45.69;99897.19;4982033;28;7024;-74
2022/09/15 12:42:09;;;;;;;;;;;;;;;23.43;46.06;99893.72;4969804;28;7201;-74
2022/09/15 12:44:39;;;;;;;;;;;;;;;23.43;45.31;99901.56;4971301;28;7055;-74
2022/09/15 12:47:33;;;;;;;;;;;;;;;23.39;45.30;99895.50;4986728;28;6950;-74
2022/09/15 12:50:28;;;;;;;;;;;;;;;23.28;45.45;99903.47;4986888;28;6875;-74
2022/09/15 12:53:21;;;;;;;;;;;;;;;23.17;46.00;99903.56;4969791;28;6974;-74
2022/09/15 12:56:10;;;;;;;;;;;;;;;23.01;45.73;99904.66;4972215;28;7273;-74
2022/09/15 12:58:47;;;;;;;;;;;;;;;22.82;46.44;99910.06;4985497;28;6800;-74
2022/09/15 13:01:21;;;;;;;;;;;;;;;22.64;46.31;99905.88;4943397;28;7066;-74
2022/09/15 13:03:52;;;;;;;;;;;;;;;22.48;46.31;99902.53;4969160;28;7005;-74
2022/09/15 13:06:31;;;;;;;;;;;;;;;22.36;46.67;99915.69;4987079;28;7193;-74
2022/09/15 13:09:00;;;;;;;;;;;;;;;22.24;47.75;99912.31;4985384;28;6995;-74
2022/09/15 13:11:48;;;;;;;;;;;;;;;22.13;47.84;99907.16;4983965;28;6780;-73
2022/09/15 13:14:35;;;;;;;;;;;;;;;22.01;48.43;99908.13;4969716;28;6807;-73
2022/09/15 13:17:20;;;;;;;;;;;;;;;21.95;48.71;99918.63;4968168;28;6980;-73
2022/09/15 13:19:52;;;;;;;;;;;;;;;21.89;48.69;99926.47;4957787;28;7249;-73
2022/09/15 13:22:33;;;;;;;;;;;;;;;21.76;48.33;99931.78;4969693;28;6981;-74
2022/09/15 13:25:13;;;;;;;;;;;;;;;21.54;48.61;99935.34;4986536;28;6800;-73
2022/09/15 13:27:46;;;;;;;;;;;;;;;21.31;48.82;99931.06;4952451;28;8753;-73
2022/09/15 13:30:37;;;;;;;;;;;;;;;21.13;49.42;99929.41;4969268;28;6966;-73
2022/09/15 13:33:08;;;;;;;;;;;;;;;21.01;50.13;99938.13;4985885;28;11085;-73
2022/09/15 13:35:57;;;;;;;;;;;;;;;20.88;50.44;99932.94;4983886;28;6938;-74
2022/09/15 13:39:06;;;;;;;;;;;;;;;20.75;50.71;99928.56;4985123;28;6962;-73
2022/09/15 13:42:03;;;;;;;;;;;;;;;20.68;50.80;99928.59;4970147;28;6978;-73